sensor_id;sensor_type;location;lat;lon;timestamp;pressure;altitude;pressure_sealevel;temperature;humidity
60170;BME280;46042;49.444;6.862;2023-07-22T00:02:24;98578.22;;;15.95;73.38
60170;BME280;46042;49.444;6.862;2023-07-22T00:04:51;98576.66;;;15.92;73.29
60170;BME280;46042;49.444;6.862;2023-07-22T00:07:18;98572.47;;;15.90;73.16
60170;BME280;46042;49.444;6.862;2023-07-22T00:09:45;98577.91;;;15.88;74.40
60170;BME280;46042;49.444;6.862;2023-07-22T00:12:12;98572.59;;;15.88;74.43
60170;BME280;46042;49.444;6.862;2023-07-22T00:14:40;98575.13;;;15.90;76.07
60170;BME280;46042;49.444;6.862;2023-07-22T00:17:07;98573.44;;;15.89;74.32
60170;BME280;46042;49.444;6.862;2023-07-22T00:19:34;98578.03;;;15.87;74.53
60170;BME280;46042;49.444;6.862;2023-07-22T00:22:01;98575.25;;;15.88;75.05
60170;BME280;46042;49.444;6.862;2023-07-22T00:24:28;98570.91;;;15.87;75.36
60170;BME280;46042;49.444;6.862;2023-07-22T00:26:55;98572.88;;;15.85;74.79
60170;BME280;46042;49.444;6.862;2023-07-22T00:29:22;98568.66;;;15.83;75.32
60170;BME280;46042;49.444;6.862;2023-07-22T00:31:49;98565.56;;;15.77;74.46
60170;BME280;46042;49.444;6.862;2023-07-22T00:34:15;98571.00;;;15.76;75.20
60170;BME280;46042;49.444;6.862;2023-07-22T00:36:43;98563.16;;;15.74;75.52
60170;BME280;46042;49.444;6.862;2023-07-22T00:39:10;98567.78;;;15.72;75.37
60170;BME280;46042;49.444;6.862;2023-07-22T00:41:40;98557.31;;;15.71;76.61
60170;BME280;46042;49.444;6.862;2023-07-22T00:44:11;98570.88;;;15.68;76.29
60170;BME280;46042;49.444;6.862;2023-07-22T00:46:39;98564.81;;;15.65;76.61
60170;BME280;46042;49.444;6.862;2023-07-22T00:49:07;98568.72;;;15.61;75.07
60170;BME280;46042;49.444;6.862;2023-07-22T00:51:34;98559.66;;;15.64;76.88
60170;BME280;46042;49.444;6.862;2023-07-22T00:54:01;98562.16;;;15.65;77.91
60170;BME280;46042;49.444;6.862;2023-07-22T00:56:27;98562.16;;;15.65;76.72
60170;BME280;46042;49.444;6.862;2023-07-22T00:58:55;98558.00;;;15.63;77.06
60170;BME280;46042;49.444;6.862;2023-07-22T01:01:22;98564.28;;;15.62;77.38
60170;BME280;46042;49.444;6.862;2023-07-22T01:03:48;98559.25;;;15.59;77.24
60170;BME280;46042;49.444;6.862;2023-07-22T01:06:15;98560.47;;;15.55;77.08
60170;BME280;46042;49.444;6.862;2023-07-22T01:08:44;98562.41;;;15.53;77.40
60170;BME280;46042;49.444;6.862;2023-07-22T01:11:11;98561.59;;;15.52;78.63
60170;BME280;46042;49.444;6.862;2023-07-22T01:13:39;98558.34;;;15.48;78.45
60170;BME280;46042;49.444;6.862;2023-07-22T01:16:06;98559.63;;;15.44;78.15
60170;BME280;46042;49.444;6.862;2023-07-22T01:18:33;98558.63;;;15.45;78.30
60170;BME280;46042;49.444;6.862;2023-07-22T01:21:01;98552.63;;;15.43;78.15
60170;BME280;46042;49.444;6.862;2023-07-22T01:23:27;98550.78;;;15.44;78.78
60170;BME280;46042;49.444;6.862;2023-07-22T01:25:55;98558.91;;;15.42;79.14
60170;BME280;46042;49.444;6.862;2023-07-22T01:28:22;98553.44;;;15.44;79.49
60170;BME280;46042;49.444;6.862;2023-07-22T01:30:49;98559.63;;;15.44;80.04
60170;BME280;46042;49.444;6.862;2023-07-22T01:33:16;98558.06;;;15.42;79.40
60170;BME280;46042;49.444;6.862;2023-07-22T01:35:42;98555.28;;;15.43;81.47
60170;BME280;46042;49.444;6.862;2023-07-22T01:38:09;98553.72;;;15.41;79.37
60170;BME280;46042;49.444;6.862;2023-07-22T01:40:35;98552.03;;;15.40;80.56
60170;BME280;46042;49.444;6.862;2023-07-22T01:43:02;98551.94;;;15.41;79.89
60170;BME280;46042;49.444;6.862;2023-07-22T01:45:29;98550.09;;;15.42;80.64
60170;BME280;46042;49.444;6.862;2023-07-22T01:47:55;98550.94;;;15.42;80.16
60170;BME280;46042;49.444;6.862;2023-07-22T01:50:22;98548.00;;;15.35;79.25
60170;BME280;46042;49.444;6.862;2023-07-22T01:52:49;98558.72;;;15.34;79.36
60170;BME280;46042;49.444;6.862;2023-07-22T01:55:15;98554.66;;;15.30;79.19
60170;BME280;46042;49.444;6.862;2023-07-22T01:57:42;98550.34;;;15.29;81.00
60170;BME280;46042;49.444;6.862;2023-07-22T02:00:09;98550.19;;;15.30;81.07
60170;BME280;46042;49.444;6.862;2023-07-22T02:02:37;98553.25;;;15.26;79.69
60170;BME280;46042;49.444;6.862;2023-07-22T02:05:05;98549.63;;;15.27;81.43
60170;BME280;46042;49.444;6.862;2023-07-22T02:07:32;98546.13;;;15.26;79.77
60170;BME280;46042;49.444;6.862;2023-07-22T02:09:59;98555.91;;;15.26;80.57
60170;BME280;46042;49.444;6.862;2023-07-22T02:12:26;98548.50;;;15.29;80.72
60170;BME280;46042;49.444;6.862;2023-07-22T02:14:52;98536.38;;;15.27;80.28
60170;BME280;46042;49.444;6.862;2023-07-22T02:17:19;98534.81;;;15.24;81.78
60170;BME280;46042;49.444;6.862;2023-07-22T02:19:46;98533.41;;;15.20;82.59
60170;BME280;46042;49.444;6.862;2023-07-22T02:22:13;98539.97;;;15.16;82.48
60170;BME280;46042;49.444;6.862;2023-07-22T02:24:40;98542.03;;;15.12;82.13
60170;BME280;46042;49.444;6.862;2023-07-22T02:27:07;98532.78;;;15.06;83.15
60170;BME280;46042;49.444;6.862;2023-07-22T02:29:35;98536.94;;;14.99;83.32
60170;BME280;46042;49.444;6.862;2023-07-22T02:32:01;98547.25;;;14.92;82.74
60170;BME280;46042;49.444;6.862;2023-07-22T02:34:28;98535.47;;;14.85;80.76
60170;BME280;46042;49.444;6.862;2023-07-22T02:36:55;98540.91;;;14.84;82.96
60170;BME280;46042;49.444;6.862;2023-07-22T02:39:22;98529.72;;;14.80;82.71
60170;BME280;46042;49.444;6.862;2023-07-22T02:41:48;98531.94;;;14.75;81.69
60170;BME280;46042;49.444;6.862;2023-07-22T02:44:15;98529.28;;;14.75;82.91
60170;BME280;46042;49.444;6.862;2023-07-22T02:46:42;98537.22;;;14.75;82.45
60170;BME280;46042;49.444;6.862;2023-07-22T02:49:08;98532.16;;;14.72;82.07
60170;BME280;46042;49.444;6.862;2023-07-22T02:51:36;98542.28;;;14.67;83.00
60170;BME280;46042;49.444;6.862;2023-07-22T02:54:03;98538.50;;;14.59;82.30
60170;BME280;46042;49.444;6.862;2023-07-22T02:56:30;98536.81;;;14.58;82.73
60170;BME280;46042;49.444;6.862;2023-07-22T02:58:57;98535.13;;;14.57;84.00
60170;BME280;46042;49.444;6.862;2023-07-22T03:01:24;98533.69;;;14.53;83.95
60170;BME280;46042;49.444;6.862;2023-07-22T03:03:51;98532.44;;;14.47;83.25
60170;BME280;46042;49.444;6.862;2023-07-22T03:06:18;98538.81;;;14.45;83.51
60170;BME280;46042;49.444;6.862;2023-07-22T03:08:45;98533.78;;;14.42;84.51
60170;BME280;46042;49.444;6.862;2023-07-22T03:11:11;98535.13;;;14.36;83.69
60170;BME280;46042;49.444;6.862;2023-07-22T03:13:38;98534.69;;;14.31;84.09
60170;BME280;46042;49.444;6.862;2023-07-22T03:16:05;98526.66;;;14.21;84.40
60170;BME280;46042;49.444;6.862;2023-07-22T03:18:32;98535.69;;;14.18;84.57
60170;BME280;46042;49.444;6.862;2023-07-22T03:20:58;98533.31;;;14.15;84.99
60170;BME280;46042;49.444;6.862;2023-07-22T03:23:25;98536.44;;;14.09;84.97
60170;BME280;46042;49.444;6.862;2023-07-22T03:25:51;98544.91;;;14.03;84.32
60170;BME280;46042;49.444;6.862;2023-07-22T03:28:18;98536.59;;;13.96;85.34
60170;BME280;46042;49.444;6.862;2023-07-22T03:30:45;98539.78;;;13.90;85.08
60170;BME280;46042;49.444;6.862;2023-07-22T03:33:11;98542.66;;;13.87;85.82
60170;BME280;46042;49.444;6.862;2023-07-22T03:35:38;98544.72;;;13.83;84.70
60170;BME280;46042;49.444;6.862;2023-07-22T03:38:07;98538.38;;;13.74;86.77
60170;BME280;46042;49.444;6.862;2023-07-22T03:40:34;98546.66;;;13.70;85.60
60170;BME280;46042;49.444;6.862;2023-07-22T03:43:01;98545.25;;;13.65;86.50
60170;BME280;46042;49.444;6.862;2023-07-22T03:45:28;98551.75;;;13.61;87.22
60170;BME280;46042;49.444;6.862;2023-07-22T03:47:59;98556.19;;;13.61;87.26
60170;BME280;46042;49.444;6.862;2023-07-22T03:50:27;98554.63;;;13.58;88.13
60170;BME280;46042;49.444;6.862;2023-07-22T03:52:54;98557.66;;;13.54;87.74
60170;BME280;46042;49.444;6.862;2023-07-22T03:55:21;98563.66;;;13.56;87.77
60170;BME280;46042;49.444;6.862;2023-07-22T03:57:47;98552.22;;;13.55;87.27
60170;BME280;46042;49.444;6.862;2023-07-22T04:00:14;98552.22;;;13.55;87.01
60170;BME280;46042;49.444;6.862;2023-07-22T04:02:41;98564.38;;;13.58;88.23
60170;BME280;46042;49.444;6.862;2023-07-22T04:05:09;98555.47;;;13.59;88.31
60170;BME280;46042;49.444;6.862;2023-07-22T04:07:36;98560.75;;;13.59;88.31
60170;BME280;46042;49.444;6.862;2023-07-22T04:10:03;98552.81;;;13.59;87.30
60170;BME280;46042;49.444;6.862;2023-07-22T04:12:30;98558.38;;;13.56;87.63
60170;BME280;46042;49.444;6.862;2023-07-22T04:14:57;98568.00;;;13.57;86.16
60170;BME280;46042;49.444;6.862;2023-07-22T04:17:24;98567.63;;;13.61;89.63
60170;BME280;46042;49.444;6.862;2023-07-22T04:19:51;98568.34;;;13.63;89.48
60170;BME280;46042;49.444;6.862;2023-07-22T04:22:20;98573.88;;;13.60;88.50
60170;BME280;46042;49.444;6.862;2023-07-22T04:24:46;98567.03;;;13.58;88.56
60170;BME280;46042;49.444;6.862;2023-07-22T04:27:16;98576.03;;;13.55;88.14
60170;BME280;46042;49.444;6.862;2023-07-22T04:29:42;98569.22;;;13.53;88.49
60170;BME280;46042;49.444;6.862;2023-07-22T04:32:09;98575.44;;;13.51;88.99
60170;BME280;46042;49.444;6.862;2023-07-22T04:34:36;98566.78;;;13.49;90.12
60170;BME280;46042;49.444;6.862;2023-07-22T04:37:03;98573.53;;;13.54;88.83
60170;BME280;46042;49.444;6.862;2023-07-22T04:39:30;98566.31;;;13.56;89.65
60170;BME280;46042;49.444;6.862;2023-07-22T04:41:57;98568.72;;;13.59;89.14
60170;BME280;46042;49.444;6.862;2023-07-22T04:44:23;98566.78;;;13.61;91.25
60170;BME280;46042;49.444;6.862;2023-07-22T04:46:51;98568.91;;;13.67;91.65
60170;BME280;46042;49.444;6.862;2023-07-22T04:49:17;98572.06;;;13.72;90.88
60170;BME280;46042;49.444;6.862;2023-07-22T04:51:45;98578.06;;;13.74;91.12
60170;BME280;46042;49.444;6.862;2023-07-22T04:54:13;98575.53;;;13.73;89.14
60170;BME280;46042;49.444;6.862;2023-07-22T04:56:41;98567.72;;;13.71;89.98
60170;BME280;46042;49.444;6.862;2023-07-22T04:59:08;98571.22;;;13.72;90.36
60170;BME280;46042;49.444;6.862;2023-07-22T05:01:35;98576.38;;;13.73;89.11
60170;BME280;46042;49.444;6.862;2023-07-22T05:04:02;98565.09;;;13.71;89.38
60170;BME280;46042;49.444;6.862;2023-07-22T05:06:30;98572.78;;;13.74;89.70
60170;BME280;46042;49.444;6.862;2023-07-22T05:08:56;98571.81;;;13.75;90.22
60170;BME280;46042;49.444;6.862;2023-07-22T05:11:23;98568.44;;;13.73;89.12
60170;BME280;46042;49.444;6.862;2023-07-22T05:13:50;98573.03;;;13.71;88.64
60170;BME280;46042;49.444;6.862;2023-07-22T05:16:17;98570.38;;;13.71;88.14
60170;BME280;46042;49.444;6.862;2023-07-22T05:18:45;98571.34;;;13.70;89.15
60170;BME280;46042;49.444;6.862;2023-07-22T05:21:12;98569.28;;;13.74;90.39
60170;BME280;46042;49.444;6.862;2023-07-22T05:23:38;98570.09;;;13.86;88.85
60170;BME280;46042;49.444;6.862;2023-07-22T05:26:05;98569.00;;;14.00;89.24
60170;BME280;46042;49.444;6.862;2023-07-22T05:28:32;98572.34;;;14.02;88.71
60170;BME280;46042;49.444;6.862;2023-07-22T05:30:58;98573.78;;;14.06;88.80
60170;BME280;46042;49.444;6.862;2023-07-22T05:33:25;98575.19;;;14.10;88.77
60170;BME280;46042;49.444;6.862;2023-07-22T05:35:52;98575.91;;;14.12;88.83
60170;BME280;46042;49.444;6.862;2023-07-22T05:38:18;98582.66;;;14.16;88.46
60170;BME280;46042;49.444;6.862;2023-07-22T05:40:45;98575.16;;;14.21;91.14
60170;BME280;46042;49.444;6.862;2023-07-22T05:43:12;98580.91;;;14.27;90.69
60170;BME280;46042;49.444;6.862;2023-07-22T05:45:39;98578.75;;;14.32;89.08
60170;BME280;46042;49.444;6.862;2023-07-22T05:48:05;98576.44;;;14.39;88.79
60170;BME280;46042;49.444;6.862;2023-07-22T05:50:33;98581.06;;;14.46;92.89
60170;BME280;46042;49.444;6.862;2023-07-22T05:52:59;98581.19;;;14.56;90.49
60170;BME280;46042;49.444;6.862;2023-07-22T05:55:26;98578.25;;;14.59;90.61
60170;BME280;46042;49.444;6.862;2023-07-22T05:57:53;98580.66;;;14.62;89.92
60170;BME280;46042;49.444;6.862;2023-07-22T06:00:20;98581.72;;;14.71;90.55
60170;BME280;46042;49.444;6.862;2023-07-22T06:02:48;98589.72;;;14.81;91.32
60170;BME280;46042;49.444;6.862;2023-07-22T06:05:15;98594.38;;;14.89;91.90
60170;BME280;46042;49.444;6.862;2023-07-22T06:07:42;98585.50;;;15.00;90.11
60170;BME280;46042;49.444;6.862;2023-07-22T06:10:09;98599.22;;;15.05;91.90
60170;BME280;46042;49.444;6.862;2023-07-22T06:12:36;98594.38;;;15.10;89.18
60170;BME280;46042;49.444;6.862;2023-07-22T06:15:03;98598.31;;;15.16;90.69
60170;BME280;46042;49.444;6.862;2023-07-22T06:17:30;98592.59;;;15.20;88.71
60170;BME280;46042;49.444;6.862;2023-07-22T06:19:58;98587.59;;;15.27;89.98
60170;BME280;46042;49.444;6.862;2023-07-22T06:22:25;98590.84;;;15.31;89.35
60170;BME280;46042;49.444;6.862;2023-07-22T06:24:51;98595.59;;;15.37;90.99
60170;BME280;46042;49.444;6.862;2023-07-22T06:27:18;98606.81;;;15.41;91.09
60170;BME280;46042;49.444;6.862;2023-07-22T06:29:45;98605.94;;;15.40;87.85
60170;BME280;46042;49.444;6.862;2023-07-22T06:32:12;98613.41;;;15.46;88.60
60170;BME280;46042;49.444;6.862;2023-07-22T06:34:39;98608.09;;;15.46;85.21
60170;BME280;46042;49.444;6.862;2023-07-22T06:37:05;98602.25;;;15.53;86.44
60170;BME280;46042;49.444;6.862;2023-07-22T06:39:32;98606.81;;;15.41;83.14
60170;BME280;46042;49.444;6.862;2023-07-22T06:41:59;98602.94;;;15.55;86.21
60170;BME280;46042;49.444;6.862;2023-07-22T06:44:25;98616.53;;;15.61;83.77
60170;BME280;46042;49.444;6.862;2023-07-22T06:46:52;98610.53;;;15.69;84.97
60170;BME280;46042;49.444;6.862;2023-07-22T06:49:19;98612.94;;;15.72;85.37
60170;BME280;46042;49.444;6.862;2023-07-22T06:51:45;98613.22;;;15.79;86.14
60170;BME280;46042;49.444;6.862;2023-07-22T06:54:12;98607.84;;;15.90;89.66
60170;BME280;46042;49.444;6.862;2023-07-22T06:56:39;98602.44;;;16.02;89.96
60170;BME280;46042;49.444;6.862;2023-07-22T06:59:05;98605.22;;;16.00;81.84
60170;BME280;46042;49.444;6.862;2023-07-22T07:01:32;98598.78;;;16.03;83.52
60170;BME280;46042;49.444;6.862;2023-07-22T07:03:59;98607.47;;;16.15;86.62
60170;BME280;46042;49.444;6.862;2023-07-22T07:06:26;98604.13;;;16.23;86.60
60170;BME280;46042;49.444;6.862;2023-07-22T07:08:52;98619.38;;;16.30;86.28
60170;BME280;46042;49.444;6.862;2023-07-22T07:11:19;98618.97;;;16.35;83.60
60170;BME280;46042;49.444;6.862;2023-07-22T07:13:46;98617.41;;;16.42;83.73
60170;BME280;46042;49.444;6.862;2023-07-22T07:16:24;98616.44;;;16.53;88.04
60170;BME280;46042;49.444;6.862;2023-07-22T07:18:52;98614.88;;;16.60;85.46
60170;BME280;46042;49.444;6.862;2023-07-22T07:21:19;98615.88;;;16.49;80.36
60170;BME280;46042;49.444;6.862;2023-07-22T07:23:47;98611.13;;;16.63;81.17
60170;BME280;46042;49.444;6.862;2023-07-22T07:26:14;98612.09;;;16.72;83.88
60170;BME280;46042;49.444;6.862;2023-07-22T07:28:41;98609.97;;;16.85;88.11
60170;BME280;46042;49.444;6.862;2023-07-22T07:31:08;98614.91;;;17.00;87.66
60170;BME280;46042;49.444;6.862;2023-07-22T07:33:35;98611.34;;;17.09;83.92
60170;BME280;46042;49.444;6.862;2023-07-22T07:36:02;98611.59;;;17.26;84.71
60170;BME280;46042;49.444;6.862;2023-07-22T07:38:29;98615.50;;;17.31;79.50
60170;BME280;46042;49.444;6.862;2023-07-22T07:41:00;98604.03;;;17.31;74.26
60170;BME280;46042;49.444;6.862;2023-07-22T07:43:27;98612.06;;;17.21;74.52
60170;BME280;46042;49.444;6.862;2023-07-22T07:48:46;98605.66;;;17.70;83.68
60170;BME280;46042;49.444;6.862;2023-07-22T07:51:14;98603.75;;;17.90;77.83
60170;BME280;46042;49.444;6.862;2023-07-22T07:53:42;98605.00;;;18.14;77.50
60170;BME280;46042;49.444;6.862;2023-07-22T07:56:11;98610.28;;;18.42;77.97
60170;BME280;46042;49.444;6.862;2023-07-22T07:58:39;98614.25;;;18.56;73.78
60170;BME280;46042;49.444;6.862;2023-07-22T08:01:07;98611.06;;;18.52;69.85
60170;BME280;46042;49.444;6.862;2023-07-22T08:03:35;98613.97;;;18.41;68.57
60170;BME280;46042;49.444;6.862;2023-07-22T08:06:02;98609.59;;;18.76;74.55
60170;BME280;46042;49.444;6.862;2023-07-22T08:08:30;98611.75;;;19.17;76.86
60170;BME280;46042;49.444;6.862;2023-07-22T08:11:06;98622.41;;;19.43;73.05
60170;BME280;46042;49.444;6.862;2023-07-22T08:13:34;98608.53;;;19.74;77.21
60170;BME280;46042;49.444;6.862;2023-07-22T08:16:03;98609.84;;;20.13;79.18
60170;BME280;46042;49.444;6.862;2023-07-22T08:18:31;98616.22;;;20.37;78.26
60170;BME280;46042;49.444;6.862;2023-07-22T08:21:02;98612.56;;;20.46;67.57
60170;BME280;46042;49.444;6.862;2023-07-22T08:23:30;98609.03;;;20.46;58.18
60170;BME280;46042;49.444;6.862;2023-07-22T08:25:57;98609.22;;;20.53;59.60
60170;BME280;46042;49.444;6.862;2023-07-22T08:28:25;98604.84;;;20.18;60.52
60170;BME280;46042;49.444;6.862;2023-07-22T08:30:55;98617.91;;;20.55;71.77
60170;BME280;46042;49.444;6.862;2023-07-22T08:33:23;98613.25;;;20.49;60.08
60170;BME280;46042;49.444;6.862;2023-07-22T08:36:06;98610.22;;;20.60;58.87
60170;BME280;46042;49.444;6.862;2023-07-22T08:38:33;98618.78;;;20.88;56.69
60170;BME280;46042;49.444;6.862;2023-07-22T08:40:59;98607.06;;;20.73;56.76
60170;BME280;46042;49.444;6.862;2023-07-22T08:43:27;98611.94;;;20.86;61.85
60170;BME280;46042;49.444;6.862;2023-07-22T08:45:59;98610.72;;;20.64;58.13
60170;BME280;46042;49.444;6.862;2023-07-22T08:48:27;98611.94;;;20.86;56.83
60170;BME280;46042;49.444;6.862;2023-07-22T08:51:03;98611.50;;;21.39;61.97
60170;BME280;46042;49.444;6.862;2023-07-22T08:53:34;98612.06;;;21.74;54.34
60170;BME280;46042;49.444;6.862;2023-07-22T08:56:01;98608.72;;;22.35;57.46
60170;BME280;46042;49.444;6.862;2023-07-22T08:58:29;98606.88;;;22.82;63.13
60170;BME280;46042;49.444;6.862;2023-07-22T09:00:56;98602.16;;;22.84;60.91
60170;BME280;46042;49.444;6.862;2023-07-22T09:03:24;98603.53;;;22.34;54.11
60170;BME280;46042;49.444;6.862;2023-07-22T09:05:53;98600.47;;;22.13;52.29
60170;BME280;46042;49.444;6.862;2023-07-22T09:08:20;98607.34;;;22.16;57.67
60170;BME280;46042;49.444;6.862;2023-07-22T09:10:48;98602.22;;;22.29;52.81
60170;BME280;46042;49.444;6.862;2023-07-22T09:13:15;98600.69;;;22.97;58.64
60170;BME280;46042;49.444;6.862;2023-07-22T09:15:42;98601.16;;;23.39;52.40
60170;BME280;46042;49.444;6.862;2023-07-22T09:18:09;98609.47;;;23.44;59.40
60170;BME280;46042;49.444;6.862;2023-07-22T09:20:36;98599.28;;;23.39;52.80
60170;BME280;46042;49.444;6.862;2023-07-22T09:23:02;98603.53;;;22.80;50.05
60170;BME280;46042;49.444;6.862;2023-07-22T09:25:39;98591.59;;;22.13;48.79
60170;BME280;46042;49.444;6.862;2023-07-22T09:28:06;98591.59;;;22.13;50.42
60170;BME280;46042;49.444;6.862;2023-07-22T09:30:38;98599.91;;;22.73;63.17
60170;BME280;46042;49.444;6.862;2023-07-22T09:33:08;98596.88;;;22.53;52.27
60170;BME280;46042;49.444;6.862;2023-07-22T09:35:47;98595.31;;;22.58;50.75
60170;BME280;46042;49.444;6.862;2023-07-22T09:38:15;98593.84;;;22.94;52.40
60170;BME280;46042;49.444;6.862;2023-07-22T09:40:48;98601.91;;;22.94;52.03
60170;BME280;46042;49.444;6.862;2023-07-22T09:43:15;98592.81;;;23.10;49.47
60170;BME280;46042;49.444;6.862;2023-07-22T09:45:46;98598.56;;;23.07;46.72
60170;BME280;46042;49.444;6.862;2023-07-22T09:48:14;98596.03;;;22.76;48.58
60170;BME280;46042;49.444;6.862;2023-07-22T09:50:41;98593.94;;;22.86;50.78
60170;BME280;46042;49.444;6.862;2023-07-22T09:53:07;98591.31;;;22.93;48.61
60170;BME280;46042;49.444;6.862;2023-07-22T09:55:34;98594.97;;;23.00;53.29
60170;BME280;46042;49.444;6.862;2023-07-22T09:58:02;98594.28;;;23.36;47.18
60170;BME280;46042;49.444;6.862;2023-07-22T10:00:31;98590.16;;;23.70;49.18
60170;BME280;46042;49.444;6.862;2023-07-22T10:02:59;98584.19;;;24.70;53.86
60170;BME280;46042;49.444;6.862;2023-07-22T10:05:27;98585.34;;;24.61;43.40
60170;BME280;46042;49.444;6.862;2023-07-22T10:07:57;98587.22;;;25.11;43.61
60170;BME280;46042;49.444;6.862;2023-07-22T10:10:34;98589.47;;;25.42;40.26
60170;BME280;46042;49.444;6.862;2023-07-22T10:13:02;98579.72;;;25.41;41.02
60170;BME280;46042;49.444;6.862;2023-07-22T10:15:31;98572.84;;;26.43;50.04
60170;BME280;46042;49.444;6.862;2023-07-22T10:18:04;98571.03;;;25.88;40.22
60170;BME280;46042;49.444;6.862;2023-07-22T10:20:34;98577.56;;;24.95;38.19
60170;BME280;46042;49.444;6.862;2023-07-22T10:23:04;98568.03;;;24.99;39.15
60170;BME280;46042;49.444;6.862;2023-07-22T10:25:30;98571.94;;;24.68;41.51
60170;BME280;46042;49.444;6.862;2023-07-22T10:27:58;98573.38;;;24.42;41.75
60170;BME280;46042;49.444;6.862;2023-07-22T10:30:24;98572.34;;;24.43;45.66
60170;BME280;46042;49.444;6.862;2023-07-22T10:32:52;98560.31;;;24.39;45.65
60170;BME280;46042;49.444;6.862;2023-07-22T10:38:12;98577.88;;;24.35;38.31
60170;BME280;46042;49.444;6.862;2023-07-22T10:40:55;98567.38;;;24.03;38.00
60170;BME280;46042;49.444;6.862;2023-07-22T10:43:27;98557.25;;;23.53;39.91
60170;BME280;46042;49.444;6.862;2023-07-22T10:45:58;98566.38;;;23.37;41.08
60170;BME280;46042;49.444;6.862;2023-07-22T10:48:27;98568.03;;;23.23;40.25
60170;BME280;46042;49.444;6.862;2023-07-22T10:50:58;98566.09;;;23.32;41.56
60170;BME280;46042;49.444;6.862;2023-07-22T10:53:31;98556.66;;;23.88;42.04
60170;BME280;46042;49.444;6.862;2023-07-22T11:12:08;98542.34;;;24.46;42.05
60170;BME280;46042;49.444;6.862;2023-07-22T11:14:52;98545.03;;;24.46;38.95
60170;BME280;46042;49.444;6.862;2023-07-22T11:17:28;98547.19;;;24.79;38.16
60170;BME280;46042;49.444;6.862;2023-07-22T11:19:58;98543.75;;;25.21;37.11
60170;BME280;46042;49.444;6.862;2023-07-22T11:22:25;98540.75;;;24.30;35.13
60170;BME280;46042;49.444;6.862;2023-07-22T11:24:52;98542.66;;;24.36;41.42
60170;BME280;46042;49.444;6.862;2023-07-22T11:27:19;98544.72;;;24.34;39.58
60170;BME280;46042;49.444;6.862;2023-07-22T11:29:48;98534.31;;;24.53;38.78
60170;BME280;46042;49.444;6.862;2023-07-22T11:32:16;98547.31;;;24.42;39.77
60170;BME280;46042;49.444;6.862;2023-07-22T11:34:43;98537.09;;;24.38;37.49
60170;BME280;46042;49.444;6.862;2023-07-22T11:37:11;98536.06;;;24.39;37.53
60170;BME280;46042;49.444;6.862;2023-07-22T11:39:38;98543.03;;;24.77;36.58
60170;BME280;46042;49.444;6.862;2023-07-22T11:42:05;98534.13;;;25.11;36.92
60170;BME280;46042;49.444;6.862;2023-07-22T11:44:32;98532.28;;;25.12;38.67
60170;BME280;46042;49.444;6.862;2023-07-22T11:47:04;98517.38;;;25.58;38.62
60170;BME280;46042;49.444;6.862;2023-07-22T11:49:36;98515.78;;;25.70;35.85
60170;BME280;46042;49.444;6.862;2023-07-22T11:52:08;98511.63;;;25.75;37.58
60170;BME280;46042;49.444;6.862;2023-07-22T11:54:38;98504.47;;;26.42;37.20
60170;BME280;46042;49.444;6.862;2023-07-22T11:57:18;98516.75;;;26.45;33.44
60170;BME280;46042;49.444;6.862;2023-07-22T11:59:52;98506.56;;;26.74;34.82
60170;BME280;46042;49.444;6.862;2023-07-22T12:02:24;98503.19;;;26.99;33.38
60170;BME280;46042;49.444;6.862;2023-07-22T12:04:57;98506.06;;;27.18;33.46
60170;BME280;46042;49.444;6.862;2023-07-22T12:07:33;98509.44;;;26.66;34.07
60170;BME280;46042;49.444;6.862;2023-07-22T12:10:10;98513.22;;;26.31;32.78
60170;BME280;46042;49.444;6.862;2023-07-22T12:15:21;98505.31;;;26.30;33.72
60170;BME280;46042;49.444;6.862;2023-07-22T12:18:01;98502.19;;;26.46;36.38
60170;BME280;46042;49.444;6.862;2023-07-22T12:20:30;98500.13;;;26.48;33.70
60170;BME280;46042;49.444;6.862;2023-07-22T12:22:58;98492.63;;;26.91;36.68
60170;BME280;46042;49.444;6.862;2023-07-22T12:25:25;98497.59;;;26.60;33.23
60170;BME280;46042;49.444;6.862;2023-07-22T12:27:52;98494.28;;;26.92;34.75
60170;BME280;46042;49.444;6.862;2023-07-22T12:30:23;98489.25;;;26.95;33.67
60170;BME280;46042;49.444;6.862;2023-07-22T12:32:50;98506.09;;;27.04;35.76
60170;BME280;46042;49.444;6.862;2023-07-22T12:35:17;98494.91;;;26.74;33.64
60170;BME280;46042;49.444;6.862;2023-07-22T12:37:44;98502.19;;;26.80;36.21
60170;BME280;46042;49.444;6.862;2023-07-22T12:40:11;98491.38;;;26.80;33.80
60170;BME280;46042;49.444;6.862;2023-07-22T12:42:39;98471.50;;;27.26;34.16
60170;BME280;46042;49.444;6.862;2023-07-22T12:45:07;98492.81;;;26.96;32.99
60170;BME280;46042;49.444;6.862;2023-07-22T12:47:34;98488.66;;;26.93;34.25
60170;BME280;46042;49.444;6.862;2023-07-22T12:50:01;98483.53;;;26.31;32.12
60170;BME280;46042;49.444;6.862;2023-07-22T12:52:29;98480.16;;;26.16;34.19
60170;BME280;46042;49.444;6.862;2023-07-22T12:54:55;98476.81;;;26.07;34.87
60170;BME280;46042;49.444;6.862;2023-07-22T12:57:22;98473.94;;;26.29;37.33
60170;BME280;46042;49.444;6.862;2023-07-22T12:59:48;98479.31;;;26.69;34.65
60170;BME280;46042;49.444;6.862;2023-07-22T13:02:16;98477.00;;;27.00;34.08
60170;BME280;46042;49.444;6.862;2023-07-22T13:04:43;98472.47;;;26.66;34.95
60170;BME280;46042;49.444;6.862;2023-07-22T13:07:11;98477.13;;;27.25;38.69
60170;BME280;46042;49.444;6.862;2023-07-22T13:09:37;98479.34;;;27.42;35.51
60170;BME280;46042;49.444;6.862;2023-07-22T13:12:04;98480.66;;;27.25;38.74
60170;BME280;46042;49.444;6.862;2023-07-22T13:14:31;98475.00;;;27.40;34.89
60170;BME280;46042;49.444;6.862;2023-07-22T13:16:58;98477.91;;;27.39;32.36
60170;BME280;46042;49.444;6.862;2023-07-22T13:19:25;98486.66;;;27.27;31.48
60170;BME280;46042;49.444;6.862;2023-07-22T13:21:52;98472.94;;;27.36;33.48
60170;BME280;46042;49.444;6.862;2023-07-22T13:24:18;98481.63;;;26.72;32.63
60170;BME280;46042;49.444;6.862;2023-07-22T13:26:45;98471.47;;;27.33;33.79
60170;BME280;46042;49.444;6.862;2023-07-22T13:29:12;98462.50;;;27.78;34.65